Time;durP1;ratioP1;P1;durP2;ratioP2;P2;SDS_P1;SDS_P2;PMS_P1;PMS_P2;Temp;Humidity;BMP_temperature;BMP_pressure;BME280_temperature;BME280_humidity;BME280_pressure;Samples;Min_cycle;Max_cycle;Signal;HPM_P1;HPM_P2
2022/08/16 00:02:07;;;;;;;5.07;4.68;;;25.70;56.10;;;;;;5052184;28;20186;-50
2022/08/16 00:04:32;;;;;;;5.00;4.60;;;25.70;56.10;;;;;;5051500;28;20226;-54
2022/08/16 00:06:58;;;;;;;4.43;4.03;;;25.70;56.10;;;;;;5052536;28;20167;-51
2022/08/16 00:09:23;;;;;;;4.97;4.55;;;25.70;56.10;;;;;;5051543;28;20175;-54
2022/08/16 00:11:49;;;;;;;5.10;4.70;;;25.70;56.10;;;;;;5052136;28;20545;-52
2022/08/16 00:14:18;;;;;;;4.88;4.47;;;25.70;56.10;;;;;;5051077;28;20529;-56
2022/08/16 00:16:43;;;;;;;4.80;4.40;;;25.70;56.10;;;;;;5050278;28;20175;-52
2022/08/16 00:19:09;;;;;;;5.28;4.82;;;25.70;56.10;;;;;;5052305;28;20175;-53
2022/08/16 00:21:34;;;;;;;5.30;4.80;;;25.70;56.10;;;;;;5051932;28;20640;-52
2022/08/16 00:24:00;;;;;;;5.07;4.68;;;25.70;56.10;;;;;;5051294;28;20206;-50
2022/08/16 00:26:25;;;;;;;5.28;4.82;;;25.70;56.10;;;;;;5052232;28;20171;-52
2022/08/16 00:28:51;;;;;;;5.07;4.60;;;25.70;56.10;;;;;;5052262;28;20179;-49
2022/08/16 00:31:16;;;;;;;5.30;4.80;;;25.60;56.10;;;;;;5051455;28;20167;-49
2022/08/16 00:33:42;;;;;;;4.55;4.15;;;25.70;56.20;;;;;;5052273;28;20167;-51
2022/08/16 00:36:07;;;;;;;4.82;4.45;;;25.60;56.10;;;;;;5051933;28;20179;-52
2022/08/16 00:38:33;;;;;;;5.18;4.70;;;25.60;56.10;;;;;;5051281;28;20187;-50
2022/08/16 00:40:59;;;;;;;4.32;3.97;;;25.60;56.10;;;;;;5051863;28;20277;-54
2022/08/16 00:43:27;;;;;;;4.68;4.28;;;25.60;56.10;;;;;;5052010;28;20207;-54
2022/08/16 00:46:10;;;;;;;4.80;4.40;;;25.60;56.10;;;;;;5051151;28;20265;-51
2022/08/16 00:48:36;;;;;;;4.93;4.53;;;25.60;56.10;;;;;;5051068;28;20578;-52
2022/08/16 00:51:02;;;;;;;4.72;4.38;;;25.60;56.10;;;;;;5053936;28;20180;-52
2022/08/16 00:53:27;;;;;;;4.57;4.22;;;25.60;56.10;;;;;;5055092;28;20171;-51
2022/08/16 00:55:55;;;;;;;5.15;4.50;;;25.60;56.10;;;;;;5055648;28;20175;-51
2022/08/16 00:58:21;;;;;;;5.35;4.95;;;25.60;56.10;;;;;;5054168;28;20585;-50
2022/08/16 01:00:47;;;;;;;4.93;4.40;;;25.60;56.10;;;;;;5053825;28;20180;-54
2022/08/16 01:03:14;;;;;;;5.13;4.72;;;25.60;56.20;;;;;;5055666;28;20260;-49
2022/08/16 01:05:39;;;;;;;4.65;4.25;;;25.60;56.10;;;;;;5054857;28;20186;-52
2022/08/16 01:08:05;;;;;;;5.38;4.88;;;25.60;56.20;;;;;;5054266;28;20167;-54
2022/08/16 01:10:31;;;;;;;5.10;4.70;;;25.60;56.10;;;;;;5055425;28;20190;-54
2022/08/16 01:12:57;;;;;;;4.47;4.18;;;25.60;56.20;;;;;;5053229;28;20860;-51
2022/08/16 01:15:23;;;;;;;4.65;4.35;;;25.60;56.20;;;;;;5054202;28;20180;-50
2022/08/16 01:17:48;;;;;;;4.68;4.28;;;25.60;56.20;;;;;;5053771;28;20184;-52
2022/08/16 01:20:14;;;;;;;4.78;4.32;;;25.60;56.10;;;;;;5053342;28;20171;-54
2022/08/16 01:23:08;;;;;;;4.88;4.47;;;25.60;56.10;;;;;;5053821;28;20179;-51
2022/08/16 01:25:36;;;;;;;4.68;4.38;;;25.50;56.10;;;;;;5054195;28;20496;-51
2022/08/16 01:28:04;;;;;;;4.55;4.25;;;25.60;56.10;;;;;;5053371;28;20179;-50
2022/08/16 01:30:31;;;;;;;4.80;4.35;;;25.60;56.10;;;;;;5054028;28;20523;-50
2022/08/16 01:33:02;;;;;;;4.70;4.30;;;25.50;56.10;;;;;;5053728;28;20201;-53
2022/08/16 01:35:59;;;;;;;4.88;4.50;;;25.50;56.10;;;;;;5054140;28;20286;-51
2022/08/16 01:38:26;;;;;;;4.22;3.90;;;25.50;56.10;;;;;;5045654;28;20183;-51
2022/08/16 01:40:54;;;;;;;4.22;3.92;;;25.50;56.10;;;;;;5054146;28;20194;-52
2022/08/16 01:43:20;;;;;;;4.45;4.10;;;25.50;56.10;;;;;;5054950;28;20258;-57
2022/08/16 01:45:45;;;;;;;4.43;4.13;;;25.50;56.10;;;;;;5053678;28;20258;-52
2022/08/16 01:48:11;;;;;;;4.43;4.03;;;25.50;56.10;;;;;;5054410;28;20286;-52
2022/08/16 01:50:37;;;;;;;4.40;4.10;;;25.50;56.10;;;;;;5054780;28;20537;-51
2022/08/16 01:53:02;;;;;;;4.10;3.70;;;25.50;56.10;;;;;;5053705;28;20171;-55
2022/08/16 01:55:28;;;;;;;4.43;4.05;;;25.50;56.10;;;;;;5054100;28;20171;-56
2022/08/16 01:57:54;;;;;;;4.78;4.40;;;25.50;56.10;;;;;;5054367;28;20218;-53
2022/08/16 02:00:19;;;;;;;4.90;4.47;;;25.50;56.10;;;;;;5054404;28;20171;-56
2022/08/16 02:02:45;;;;;;;4.95;4.50;;;25.50;56.10;;;;;;5053351;28;20176;-53
2022/08/16 02:05:11;;;;;;;4.97;4.47;;;25.50;56.10;;;;;;5054265;28;20230;-57
2022/08/16 02:07:37;;;;;;;4.18;3.88;;;25.50;56.10;;;;;;5054760;28;20249;-57
2022/08/16 02:10:05;;;;;;;4.78;4.38;;;25.50;56.10;;;;;;5053695;28;20950;-56
2022/08/16 02:12:30;;;;;;;4.43;4.13;;;25.50;56.10;;;;;;5054459;28;20182;-57
2022/08/16 02:14:56;;;;;;;4.72;4.32;;;25.40;56.00;;;;;;5053911;28;20540;-55
2022/08/16 02:17:21;;;;;;;4.13;3.75;;;25.50;56.10;;;;;;5053149;28;20199;-57
2022/08/16 02:19:48;;;;;;;5.20;4.78;;;25.40;56.00;;;;;;5053976;28;20258;-54
2022/08/16 02:22:17;;;;;;;4.03;3.75;;;25.50;56.10;;;;;;5052583;28;20227;-56
2022/08/16 02:24:43;;;;;;;4.65;4.35;;;25.50;56.10;;;;;;5051690;28;20211;-56
2022/08/16 02:27:09;;;;;;;4.85;4.38;;;25.50;56.10;;;;;;5053821;28;20178;-56
2022/08/16 02:29:35;;;;;;;3.90;3.45;;;25.40;56.00;;;;;;5053549;28;20175;-56
2022/08/16 02:32:00;;;;;;;4.55;4.15;;;25.40;56.00;;;;;;5052509;28;20171;-56
2022/08/16 02:34:26;;;;;;;4.40;3.97;;;25.40;56.00;;;;;;5053148;28;20186;-54
2022/08/16 02:36:51;;;;;;;4.22;3.92;;;25.40;56.00;;;;;;5052881;28;20194;-55
2022/08/16 02:39:18;;;;;;;4.45;4.15;;;25.40;56.00;;;;;;5052250;28;20175;-56
2022/08/16 02:41:44;;;;;;;4.53;4.22;;;25.40;56.00;;;;;;5053090;28;20171;-56
2022/08/16 02:44:10;;;;;;;4.80;4.40;;;25.40;56.00;;;;;;5052265;28;20257;-57
2022/08/16 02:46:36;;;;;;;4.50;4.20;;;25.40;56.00;;;;;;5052792;28;20171;-57
2022/08/16 02:49:01;;;;;;;4.90;4.47;;;25.40;56.00;;;;;;5052931;28;20241;-54
2022/08/16 02:51:27;;;;;;;4.22;3.92;;;25.40;56.00;;;;;;5052368;28;20280;-56
2022/08/16 02:53:53;;;;;;;4.68;4.22;;;25.40;56.00;;;;;;5052864;28;20181;-55
2022/08/16 02:56:19;;;;;;;4.45;4.10;;;25.40;56.00;;;;;;5052881;28;20167;-54
2022/08/16 02:58:46;;;;;;;4.95;4.45;;;25.40;56.10;;;;;;5051808;28;20641;-56
2022/08/16 03:01:12;;;;;;;4.45;4.15;;;25.40;56.00;;;;;;5052653;28;20624;-55
2022/08/16 03:03:38;;;;;;;4.68;4.38;;;25.40;56.10;;;;;;5052529;28;20231;-57
2022/08/16 03:06:03;;;;;;;4.20;3.90;;;25.40;56.00;;;;;;5051590;28;20743;-55
2022/08/16 03:08:29;;;;;;;4.53;4.13;;;25.40;56.10;;;;;;5052561;28;20228;-56
2022/08/16 03:10:54;;;;;;;4.35;3.95;;;25.30;56.00;;;;;;5052293;28;20217;-57
2022/08/16 03:13:20;;;;;;;4.38;4.07;;;25.40;56.10;;;;;;5051129;28;20512;-55
2022/08/16 03:15:45;;;;;;;4.25;3.95;;;25.30;56.00;;;;;;5052046;28;20661;-56
2022/08/16 03:18:11;;;;;;;4.68;4.28;;;25.30;56.00;;;;;;5052478;28;20609;-53
2022/08/16 03:20:37;;;;;;;4.35;3.88;;;25.40;56.10;;;;;;5051684;28;20199;-52
2022/08/16 03:23:03;;;;;;;4.85;4.45;;;25.40;56.10;;;;;;5052068;28;20171;-54
2022/08/16 03:25:29;;;;;;;4.32;4.03;;;25.30;56.10;;;;;;5052109;28;20321;-55
2022/08/16 03:27:54;;;;;;;4.70;4.30;;;25.30;56.10;;;;;;5051346;28;20183;-55
2022/08/16 03:30:23;;;;;;;5.00;4.60;;;25.30;56.10;;;;;;5051901;28;20545;-52
2022/08/16 03:32:49;;;;;;;4.25;3.95;;;25.40;56.20;;;;;;5052026;28;20177;-55
2022/08/16 03:35:19;;;;;;;4.32;4.00;;;25.30;56.10;;;;;;5051411;28;20262;-52
2022/08/16 03:37:45;;;;;;;4.93;4.50;;;25.30;56.10;;;;;;5051861;28;20262;-55
2022/08/16 03:40:12;;;;;;;4.60;4.30;;;25.30;56.10;;;;;;5051992;28;20385;-55
2022/08/16 03:42:37;;;;;;;4.70;4.30;;;25.30;56.10;;;;;;5051139;28;20289;-55
2022/08/16 03:45:03;;;;;;;4.30;4.00;;;25.30;56.10;;;;;;5051702;28;20278;-56
2022/08/16 03:47:28;;;;;;;4.47;4.18;;;25.30;56.10;;;;;;5051393;28;20620;-56
2022/08/16 03:49:54;;;;;;;4.18;3.80;;;25.30;56.20;;;;;;5052202;28;20194;-55
2022/08/16 03:52:21;;;;;;;4.35;3.95;;;25.20;56.10;;;;;;5052355;28;20629;-57
2022/08/16 03:54:47;;;;;;;4.78;4.47;;;25.30;56.10;;;;;;5051334;28;20175;-54
2022/08/16 03:57:12;;;;;;;4.03;3.80;;;25.30;56.10;;;;;;5051955;28;20177;-50
2022/08/16 03:59:38;;;;;;;4.55;4.22;;;25.20;56.10;;;;;;5051891;28;20237;-51
2022/08/16 04:02:03;;;;;;;4.32;3.97;;;25.20;56.00;;;;;;5050970;28;20668;-54
2022/08/16 04:04:29;;;;;;;4.30;4.00;;;25.20;56.00;;;;;;5051548;28;20272;-52
2022/08/16 04:06:54;;;;;;;4.72;4.20;;;25.20;56.10;;;;;;5051710;28;20224;-55
2022/08/16 04:09:20;;;;;;;4.68;4.28;;;25.20;56.00;;;;;;5051246;28;20265;-55
2022/08/16 04:11:45;;;;;;;4.25;3.95;;;25.20;56.00;;;;;;5051551;28;20262;-53
2022/08/16 04:14:11;;;;;;;4.10;3.80;;;25.20;56.00;;;;;;5050297;28;20179;-51
2022/08/16 04:16:37;;;;;;;4.35;4.03;;;25.30;56.10;;;;;;5051046;28;20186;-49
2022/08/16 04:19:03;;;;;;;4.20;3.90;;;25.20;56.00;;;;;;5051492;28;20493;-54
2022/08/16 04:21:32;;;;;;;4.75;4.35;;;25.20;56.00;;;;;;5051409;28;20167;-51
2022/08/16 04:23:58;;;;;;;4.72;4.30;;;25.20;56.10;;;;;;5051014;28;20214;-51
2022/08/16 04:26:24;;;;;;;4.50;4.20;;;25.20;56.00;;;;;;5054672;28;20305;-53
2022/08/16 04:28:49;;;;;;;4.68;4.32;;;25.20;56.10;;;;;;5056015;28;20265;-52
2022/08/16 04:31:15;;;;;;;4.07;3.78;;;25.20;56.10;;;;;;5055611;28;20171;-53
2022/08/16 04:33:40;;;;;;;4.30;3.97;;;25.20;56.10;;;;;;5056235;28;20193;-50
2022/08/16 04:36:06;;;;;;;4.30;4.00;;;25.20;56.10;;;;;;5055797;28;20198;-54
2022/08/16 04:38:31;;;;;;;4.32;4.03;;;25.20;56.10;;;;;;5054078;28;20218;-53
2022/08/16 04:40:57;;;;;;;4.30;4.00;;;25.20;56.20;;;;;;5055444;28;20175;-51
2022/08/16 04:43:22;;;;;;;4.75;4.35;;;25.20;56.10;;;;;;5055482;28;20252;-56
2022/08/16 04:45:48;;;;;;;4.30;4.00;;;25.20;56.10;;;;;;5054764;28;20266;-55
2022/08/16 04:48:13;;;;;;;4.72;4.32;;;25.20;56.10;;;;;;5055608;28;20650;-52
2022/08/16 04:50:39;;;;;;;4.68;4.28;;;25.20;56.10;;;;;;5055588;28;20203;-52
2022/08/16 04:53:04;;;;;;;4.90;4.60;;;25.10;56.70;;;;;;5054865;28;20191;-49
2022/08/16 04:55:30;;;;;;;4.82;4.40;;;25.20;56.10;;;;;;5055319;28;20525;-52
2022/08/16 04:57:56;;;;;;;4.40;4.05;;;25.20;56.30;;;;;;5054532;28;20189;-51
2022/08/16 05:00:26;;;;;;;4.72;4.40;;;25.20;56.20;;;;;;5055314;28;20229;-51
2022/08/16 05:02:53;;;;;;;4.50;4.20;;;25.20;56.20;;;;;;5055339;28;20293;-53
2022/08/16 05:05:18;;;;;;;4.20;3.90;;;25.20;56.20;;;;;;5054656;28;20223;-56
2022/08/16 05:07:45;;;;;;;4.38;4.07;;;25.20;56.10;;;;;;5055087;28;20193;-56
2022/08/16 05:10:10;;;;;;;4.90;4.45;;;25.20;56.20;;;;;;5055185;28;20198;-49
2022/08/16 05:12:36;;;;;;;4.78;4.38;;;25.20;56.20;;;;;;5054538;28;20626;-50
2022/08/16 05:15:02;;;;;;;4.80;4.40;;;25.20;56.20;;;;;;5054891;28;20179;-51
2022/08/16 05:17:27;;;;;;;4.55;4.25;;;25.20;56.20;;;;;;5055179;28;20172;-51
2022/08/16 05:19:53;;;;;;;4.60;4.20;;;25.10;56.10;;;;;;5054038;28;20186;-50
2022/08/16 05:22:18;;;;;;;4.55;4.22;;;25.20;56.30;;;;;;5055002;28;20179;-55
2022/08/16 05:24:44;;;;;;;4.10;3.80;;;25.20;56.30;;;;;;5054829;28;20253;-53
2022/08/16 05:27:09;;;;;;;4.25;3.95;;;25.20;56.30;;;;;;5054556;28;20268;-49
2022/08/16 05:29:35;;;;;;;4.40;4.10;;;25.20;56.30;;;;;;5055051;28;20664;-51
2022/08/16 05:32:01;;;;;;;4.80;4.45;;;25.20;56.30;;;;;;5055130;28;20185;-52
2022/08/16 05:34:27;;;;;;;4.38;4.07;;;25.20;56.20;;;;;;5054522;28;20270;-55
2022/08/16 05:36:56;;;;;;;4.57;4.18;;;25.20;56.30;;;;;;5054588;28;20178;-49
2022/08/16 05:39:22;;;;;;;4.63;4.32;;;25.20;56.90;;;;;;5054943;28;20268;-52
2022/08/16 05:41:47;;;;;;;4.60;4.20;;;25.20;56.30;;;;;;5054277;28;20179;-56
2022/08/16 05:44:14;;;;;;;4.25;3.95;;;25.20;56.20;;;;;;5054851;28;20610;-54
2022/08/16 05:46:40;;;;;;;4.40;4.10;;;25.20;56.20;;;;;;5055212;28;20250;-51
2022/08/16 05:49:06;;;;;;;4.60;4.20;;;25.20;56.20;;;;;;5054331;28;20179;-51
2022/08/16 05:51:32;;;;;;;4.50;4.13;;;25.20;56.20;;;;;;5055003;28;20171;-48
2022/08/16 05:53:57;;;;;;;4.88;4.47;;;25.20;56.20;;;;;;5054648;28;20175;-50
2022/08/16 05:56:23;;;;;;;4.35;4.05;;;25.20;56.20;;;;;;5054544;28;20183;-54
2022/08/16 05:58:48;;;;;;;4.82;4.40;;;25.20;56.10;;;;;;5054629;28;20178;-55
2022/08/16 06:01:14;;;;;;;4.22;3.92;;;25.20;56.10;;;;;;5054037;28;20186;-51
2022/08/16 06:03:39;;;;;;;4.07;3.78;;;25.20;56.10;;;;;;5054157;28;20249;-54
2022/08/16 06:06:05;;;;;;;6.28;4.90;;;25.20;56.30;;;;;;5053781;28;20179;-56
2022/08/16 06:08:31;;;;;;;6.38;5.10;;;25.20;56.20;;;;;;5053331;28;20177;-54
2022/08/16 06:10:56;;;;;;;4.68;4.28;;;25.20;56.10;;;;;;5053804;28;20960;-49
2022/08/16 06:13:22;;;;;;;5.43;4.93;;;25.20;56.00;;;;;;5054153;28;20186;-51
2022/08/16 06:15:50;;;;;;;4.88;4.47;;;25.30;56.20;;;;;;5053220;28;20548;-51
2022/08/16 06:18:16;;;;;;;4.75;4.35;;;25.20;56.10;;;;;;5053736;28;20171;-50
2022/08/16 06:20:42;;;;;;;4.50;4.20;;;25.30;56.30;;;;;;5053947;28;20186;-51
2022/08/16 06:23:08;;;;;;;5.07;4.50;;;25.30;56.60;;;;;;5052835;28;20179;-53
2022/08/16 06:25:33;;;;;;;5.90;4.50;;;25.30;56.50;;;;;;5053863;28;20739;-54
2022/08/16 06:27:59;;;;;;;7.25;4.75;;;25.30;56.50;;;;;;5053766;28;20193;-53
2022/08/16 06:30:24;;;;;;;5.72;4.47;;;25.30;56.50;;;;;;5052642;28;20211;-54
2022/08/16 06:32:50;;;;;;;4.60;4.20;;;25.30;56.50;;;;;;5053592;28;20258;-56
2022/08/16 06:35:16;;;;;;;5.07;4.25;;;25.40;56.60;;;;;;5053617;28;20258;-55
2022/08/16 06:37:41;;;;;;;5.55;5.05;;;25.30;56.60;;;;;;5052950;28;20179;-54
2022/08/16 06:40:08;;;;;;;6.75;4.70;;;25.40;56.70;;;;;;5053388;28;20178;-53
2022/08/16 06:42:33;;;;;;;6.60;4.47;;;25.40;56.90;;;;;;5053471;28;20172;-64
2022/08/16 06:44:59;;;;;;;8.05;4.78;;;25.40;56.80;;;;;;5052524;28;20217;-65
2022/08/16 06:47:24;;;;;;;5.05;4.65;;;25.40;56.60;;;;;;5052847;28;20178;-64
2022/08/16 06:49:50;;;;;;;5.70;4.90;;;25.40;56.60;;;;;;5052821;28;20179;-63
2022/08/16 06:52:15;;;;;;;5.80;4.78;;;25.40;56.60;;;;;;5052574;28;20178;-64
2022/08/16 06:54:41;;;;;;;5.93;4.97;;;25.40;56.50;;;;;;5053144;28;20542;-65
2022/08/16 06:57:09;;;;;;;5.88;5.38;;;25.40;56.50;;;;;;5053229;28;20167;-63
2022/08/16 06:59:35;;;;;;;8.05;7.30;;;25.40;56.50;;;;;;5052646;28;20191;-64
2022/08/16 07:02:00;;;;;;;8.88;7.38;;;25.40;56.60;;;;;;5052907;28;20194;-66
2022/08/16 07:04:26;;;;;;;7.05;6.13;;;25.40;56.60;;;;;;5052012;28;20313;-67
2022/08/16 07:06:52;;;;;;;7.88;7.03;;;25.40;56.60;;;;;;5052530;28;20175;-66
2022/08/16 07:09:17;;;;;;;7.88;7.07;;;25.50;56.60;;;;;;5052637;28;20328;-66
2022/08/16 07:11:43;;;;;;;8.10;7.30;;;25.50;56.70;;;;;;5052337;28;20170;-66
2022/08/16 07:14:09;;;;;;;10.02;7.47;;;25.50;56.60;;;;;;5053001;28;20183;-66
2022/08/16 07:16:34;;;;;;;7.75;6.95;;;25.50;56.60;;;;;;5052858;28;20175;-66
2022/08/16 07:19:00;;;;;;;8.10;7.40;;;25.50;56.60;;;;;;5052047;28;20175;-66
2022/08/16 07:21:25;;;;;;;7.85;7.10;;;25.50;56.50;;;;;;5052726;28;20172;-66
2022/08/16 07:23:51;;;;;;;7.88;7.05;;;25.60;56.50;;;;;;5052310;28;20701;-66
2022/08/16 07:26:24;;;;;;;7.93;6.88;;;25.60;56.50;;;;;;5052044;28;20522;-66
2022/08/16 07:28:50;;;;;;;6.53;6.03;;;25.60;56.50;;;;;;5052561;28;20182;-66
2022/08/16 07:31:16;;;;;;;8.50;6.63;;;25.60;56.40;;;;;;5052700;28;20257;-66
2022/08/16 07:33:41;;;;;;;7.65;6.63;;;25.60;56.40;;;;;;5051929;28;20244;-66
2022/08/16 07:36:07;;;;;;;10.43;7.10;;;25.60;56.30;;;;;;5052137;28;20171;-66
2022/08/16 07:38:33;;;;;;;8.13;6.68;;;25.70;56.30;;;;;;5052360;28;20175;-66
2022/08/16 07:40:58;;;;;;;6.72;6.22;;;25.70;56.30;;;;;;5051688;28;20175;-66
2022/08/16 07:43:24;;;;;;;8.63;6.32;;;25.70;56.20;;;;;;5052400;28;20182;-66
2022/08/16 07:45:50;;;;;;;7.20;6.60;;;25.70;56.20;;;;;;5051779;28;20190;-65
2022/08/16 07:48:16;;;;;;;7.70;6.95;;;25.70;56.80;;;;;;5051530;28;20202;-64
2022/08/16 07:50:42;;;;;;;6.82;6.30;;;25.70;56.10;;;;;;5052298;28;20202;-63
2022/08/16 07:53:07;;;;;;;7.30;6.72;;;25.70;56.10;;;;;;5052154;28;20167;-63
2022/08/16 07:55:33;;;;;;;10.07;6.75;;;25.70;56.10;;;;;;5051773;28;20206;-63
2022/08/16 07:57:58;;;;;;;6.53;6.03;;;25.70;56.00;;;;;;5052154;28;20174;-65
2022/08/16 08:00:24;;;;;;;7.53;6.15;;;25.80;56.10;;;;;;5051953;28;20514;-66
2022/08/16 08:02:49;;;;;;;6.88;5.95;;;25.80;56.10;;;;;;5051306;28;20539;-66
2022/08/16 08:05:15;;;;;;;6.85;6.25;;;25.80;56.10;;;;;;5051796;28;20269;-65
2022/08/16 08:07:41;;;;;;;8.80;6.50;;;25.80;56.00;;;;;;5051368;28;20270;-62
2022/08/16 08:10:07;;;;;;;7.53;6.15;;;25.90;56.10;;;;;;5052106;28;20640;-63
2022/08/16 08:12:32;;;;;;;8.07;5.95;;;25.90;56.30;;;;;;5052136;28;20648;-63
2022/08/16 08:14:58;;;;;;;9.65;6.40;;;25.80;56.30;;;;;;5051323;28;20179;-63
2022/08/16 08:17:23;;;;;;;8.82;6.07;;;25.80;56.40;;;;;;5052130;28;20691;-63
2022/08/16 08:19:49;;;;;;;6.75;6.10;;;25.80;56.40;;;;;;5051894;28;20622;-63
2022/08/16 08:22:15;;;;;;;7.35;5.78;;;25.80;56.30;;;;;;5051592;28;20191;-63
2022/08/16 08:24:40;;;;;;;8.82;6.43;;;25.90;56.30;;;;;;5051548;28;20238;-63
2022/08/16 08:27:07;;;;;;;6.22;5.72;;;25.90;56.30;;;;;;5062754;28;20560;-63
2022/08/16 08:29:33;;;;;;;7.32;6.63;;;25.80;56.30;;;;;;5051505;28;20233;-63
2022/08/16 08:31:59;;;;;;;7.80;6.78;;;25.90;56.40;;;;;;5051740;28;20171;-62
2022/08/16 08:34:25;;;;;;;7.82;6.97;;;25.80;56.20;;;;;;5051999;28;20187;-64
2022/08/16 08:36:51;;;;;;;8.60;6.10;;;25.80;56.20;;;;;;5051120;28;20221;-63
2022/08/16 08:39:16;;;;;;;7.28;6.57;;;25.80;56.20;;;;;;5051816;28;20202;-64
2022/08/16 08:41:42;;;;;;;8.73;6.68;;;25.90;56.50;;;;;;5051890;28;20210;-64
2022/08/16 08:44:09;;;;;;;8.32;6.20;;;25.80;56.30;;;;;;5050905;28;20203;-64
2022/08/16 08:46:34;;;;;;;7.45;6.28;;;25.90;56.50;;;;;;5051847;28;20209;-64
2022/08/16 08:49:00;;;;;;;6.78;6.10;;;25.90;56.50;;;;;;5051678;28;20627;-63
2022/08/16 08:51:26;;;;;;;7.30;6.07;;;25.90;56.50;;;;;;5051035;28;20197;-63
2022/08/16 08:53:51;;;;;;;8.18;6.28;;;25.90;56.50;;;;;;5051538;28;20626;-63
2022/08/16 08:56:17;;;;;;;7.57;6.10;;;25.90;56.50;;;;;;5051835;28;20176;-63
2022/08/16 08:58:42;;;;;;;8.60;6.63;;;25.90;56.40;;;;;;5051054;28;20179;-63
2022/08/16 09:01:08;;;;;;;7.22;6.50;;;25.90;56.40;;;;;;5051704;28;20637;-64
2022/08/16 09:03:34;;;;;;;7.15;5.72;;;25.90;56.40;;;;;;5051444;28;20697;-64
2022/08/16 09:06:00;;;;;;;7.13;6.55;;;25.90;56.40;;;;;;5050704;28;20626;-63
2022/08/16 09:08:25;;;;;;;8.68;6.28;;;26.00;56.40;;;;;;5051876;28;20171;-64
2022/08/16 09:10:56;;;;;;;6.72;6.15;;;26.00;56.30;;;;;;5051637;28;20575;-63
2022/08/16 09:13:23;;;;;;;6.10;5.53;;;25.90;56.30;;;;;;5055430;28;20175;-64
2022/08/16 09:15:49;;;;;;;6.65;6.00;;;26.00;56.30;;;;;;5055057;28;20198;-64
2022/08/16 09:18:16;;;;;;;6.97;6.22;;;26.00;56.20;;;;;;5054408;28;20175;-64
2022/08/16 09:20:42;;;;;;;7.50;5.93;;;26.00;56.20;;;;;;5055450;28;20541;-64
2022/08/16 09:23:08;;;;;;;6.85;6.15;;;26.00;56.20;;;;;;5055096;28;20179;-63
2022/08/16 09:25:33;;;;;;;6.15;5.55;;;26.00;56.10;;;;;;5054347;28;20224;-64
2022/08/16 09:27:59;;;;;;;6.82;6.22;;;26.00;56.10;;;;;;5054904;28;20254;-63
2022/08/16 09:30:25;;;;;;;6.18;5.68;;;26.00;56.00;;;;;;5054923;28;20549;-63
2022/08/16 09:32:53;;;;;;;6.35;5.85;;;26.00;56.10;;;;;;5054155;28;20659;-64
2022/08/16 09:35:22;;;;;;;5.70;5.20;;;26.00;56.00;;;;;;5054768;28;20179;-64
2022/08/16 09:37:47;;;;;;;6.88;5.75;;;26.00;56.00;;;;;;5054806;28;20175;-65
2022/08/16 09:40:13;;;;;;;6.70;6.10;;;26.00;56.00;;;;;;5054327;28;20654;-63
2022/08/16 09:42:39;;;;;;;6.55;5.45;;;26.00;56.00;;;;;;5057146;28;20171;-64
2022/08/16 09:45:07;;;;;;;6.60;6.05;;;26.00;56.00;;;;;;5057912;28;20203;-63
2022/08/16 09:47:36;;;;;;;6.25;5.65;;;26.00;56.00;;;;;;5053876;28;20237;-64
2022/08/16 09:50:02;;;;;;;5.78;5.25;;;26.00;55.90;;;;;;5054580;28;20171;-62
2022/08/16 09:52:27;;;;;;;6.15;5.65;;;26.10;56.10;;;;;;5054657;28;20258;-62
2022/08/16 09:54:53;;;;;;;5.60;5.10;;;26.10;56.20;;;;;;5053671;28;20267;-62
2022/08/16 09:57:18;;;;;;;5.97;5.45;;;26.20;56.20;;;;;;5054608;28;20183;-62
2022/08/16 09:59:44;;;;;;;6.55;5.85;;;26.10;56.10;;;;;;5054210;28;20190;-62
2022/08/16 10:02:09;;;;;;;6.15;5.60;;;26.10;56.10;;;;;;5053805;28;20262;-62
2022/08/16 10:04:35;;;;;;;6.50;5.90;;;26.10;56.10;;;;;;5054077;28;20582;-62
2022/08/16 10:07:02;;;;;;;6.38;5.88;;;26.10;56.10;;;;;;5054400;28;20167;-62
2022/08/16 10:09:27;;;;;;;6.65;5.75;;;26.20;56.70;;;;;;5053638;28;20229;-62
2022/08/16 10:14:37;;;;;;;6.15;5.55;;;26.20;56.10;;;;;;5053474;28;20178;-62
2022/08/16 10:17:03;;;;;;;6.93;5.38;;;26.20;56.00;;;;;;5053885;28;20539;-62
2022/08/16 10:19:29;;;;;;;6.07;5.57;;;26.20;56.00;;;;;;5054054;28;20171;-63
2022/08/16 10:21:54;;;;;;;5.68;5.20;;;26.20;56.00;;;;;;5053283;28;20189;-62
2022/08/16 10:24:20;;;;;;;6.10;5.53;;;26.20;56.00;;;;;;5053988;28;20250;-62
2022/08/16 10:26:46;;;;;;;6.15;5.68;;;26.20;56.00;;;;;;5053611;28;20178;-62
2022/08/16 10:29:12;;;;;;;6.55;6.00;;;26.30;56.00;;;;;;5053102;28;20187;-62
2022/08/16 10:31:37;;;;;;;5.95;5.35;;;26.20;55.90;;;;;;5053755;28;20175;-61
2022/08/16 10:34:03;;;;;;;5.72;5.22;;;26.30;55.90;;;;;;5053688;28;20301;-61
2022/08/16 10:36:28;;;;;;;6.82;6.10;;;26.30;55.90;;;;;;5052919;28;20258;-63
2022/08/16 10:38:54;;;;;;;5.88;5.38;;;26.30;55.90;;;;;;5053408;28;20261;-62
2022/08/16 10:41:19;;;;;;;6.30;5.80;;;26.30;55.80;;;;;;5053633;28;20292;-62
2022/08/16 10:43:45;;;;;;;5.68;5.20;;;26.30;55.90;;;;;;5052370;28;20558;-64
2022/08/16 10:46:12;;;;;;;5.93;5.32;;;26.30;55.80;;;;;;5053818;28;20577;-63
2022/08/16 10:48:41;;;;;;;7.70;6.10;;;26.30;55.70;;;;;;5053790;28;20214;-64
2022/08/16 10:51:07;;;;;;;5.97;5.40;;;26.30;55.60;;;;;;5052663;28;20185;-64
2022/08/16 10:53:32;;;;;;;6.80;5.60;;;26.30;55.70;;;;;;5053374;28;20167;-63
2022/08/16 10:55:58;;;;;;;6.80;6.13;;;26.30;55.60;;;;;;5053052;28;20179;-63
2022/08/16 10:58:24;;;;;;;5.93;5.32;;;26.30;55.60;;;;;;5052424;28;20175;-63
2022/08/16 11:00:49;;;;;;;7.90;5.88;;;26.30;55.60;;;;;;5052979;28;20175;-64
2022/08/16 11:03:15;;;;;;;6.60;5.68;;;26.40;55.70;;;;;;5052497;28;20235;-64
2022/08/16 11:05:42;;;;;;;6.03;5.53;;;26.40;55.70;;;;;;5052628;28;20234;-63
2022/08/16 11:08:10;;;;;;;6.95;5.55;;;26.40;55.70;;;;;;5052906;28;20223;-64
2022/08/16 11:10:38;;;;;;;7.68;5.63;;;26.30;55.60;;;;;;5052337;28;20175;-63
2022/08/16 11:13:05;;;;;;;5.63;5.13;;;26.40;55.60;;;;;;5053067;28;20270;-62
2022/08/16 11:15:31;;;;;;;6.32;5.72;;;26.40;55.60;;;;;;5053118;28;20187;-63
2022/08/16 11:17:57;;;;;;;6.78;5.72;;;26.40;55.60;;;;;;5052045;28;20551;-63
2022/08/16 11:20:22;;;;;;;5.65;5.20;;;26.40;55.60;;;;;;5052650;28;20175;-64
2022/08/16 11:22:48;;;;;;;7.13;5.22;;;26.40;56.20;;;;;;5052627;28;20175;-64
2022/08/16 11:25:19;;;;;;;6.70;5.20;;;26.40;55.50;;;;;;5052185;28;20210;-63
2022/08/16 11:27:45;;;;;;;6.68;4.90;;;26.40;55.40;;;;;;5052495;28;20276;-62
2022/08/16 11:30:12;;;;;;;5.90;5.28;;;26.40;55.40;;;;;;5053108;28;20212;-55
2022/08/16 11:32:38;;;;;;;6.85;6.15;;;26.40;55.40;;;;;;5052290;28;20205;-53
2022/08/16 11:35:08;;;;;;;7.07;5.18;;;26.40;55.70;;;;;;5052196;28;20206;-53
2022/08/16 11:37:34;;;;;;;7.45;5.60;;;26.40;55.80;;;;;;5052718;28;20171;-51
2022/08/16 11:40:00;;;;;;;5.60;5.07;;;26.30;55.70;;;;;;5051830;28;20540;-54
2022/08/16 11:42:25;;;;;;;6.55;5.47;;;26.40;55.80;;;;;;5052487;28;20630;-52
2022/08/16 11:44:51;;;;;;;6.22;5.57;;;26.40;55.80;;;;;;5052574;28;20217;-50
2022/08/16 11:47:17;;;;;;;8.43;5.30;;;26.40;55.70;;;;;;5052003;28;20166;-53
2022/08/16 11:49:42;;;;;;;5.55;5.10;;;26.40;55.70;;;;;;5052718;28;20175;-53
2022/08/16 11:52:08;;;;;;;6.05;5.45;;;26.40;55.70;;;;;;5052366;28;20182;-54
2022/08/16 11:54:33;;;;;;;6.72;5.47;;;26.50;55.70;;;;;;5051687;28;20254;-53
2022/08/16 11:56:59;;;;;;;6.18;5.63;;;26.40;55.60;;;;;;5052591;28;20167;-52
2022/08/16 11:59:27;;;;;;;5.70;5.30;;;26.50;55.70;;;;;;5052486;28;20523;-52
2022/08/16 12:01:54;;;;;;;5.38;4.97;;;26.40;55.60;;;;;;5051531;28;20699;-53
2022/08/16 12:04:20;;;;;;;5.53;5.10;;;26.40;55.50;;;;;;5052395;28;20249;-54
2022/08/16 12:06:46;;;;;;;6.40;5.85;;;26.40;55.60;;;;;;5051705;28;20179;-55
2022/08/16 12:09:11;;;;;;;5.82;5.32;;;26.40;55.70;;;;;;5052341;28;20301;-53
2022/08/16 12:11:37;;;;;;;5.53;5.00;;;26.40;55.70;;;;;;5052135;28;20195;-51
2022/08/16 12:14:03;;;;;;;5.68;5.03;;;26.40;55.70;;;;;;5051205;28;20222;-52
2022/08/16 12:16:29;;;;;;;6.25;5.43;;;26.30;55.60;;;;;;5052434;28;20175;-53
2022/08/16 12:18:54;;;;;;;5.75;5.28;;;26.40;55.60;;;;;;5051933;28;20541;-55
2022/08/16 12:21:21;;;;;;;6.03;5.43;;;26.40;55.60;;;;;;5051350;28;20255;-55
2022/08/16 12:23:46;;;;;;;6.10;5.47;;;26.30;56.10;;;;;;5051862;28;20183;-48
2022/08/16 12:26:12;;;;;;;5.65;5.22;;;26.30;55.40;;;;;;5051972;28;20540;-48
2022/08/16 12:28:37;;;;;;;6.32;5.75;;;26.30;55.50;;;;;;5051565;28;20190;-50
2022/08/16 12:31:03;;;;;;;6.63;4.97;;;26.30;55.50;;;;;;5051946;28;20318;-50
2022/08/16 12:33:30;;;;;;;5.88;5.22;;;26.30;55.50;;;;;;5052060;28;20286;-49
2022/08/16 12:35:55;;;;;;;5.78;5.15;;;26.20;55.50;;;;;;5051263;28;20187;-54
2022/08/16 12:38:21;;;;;;;5.38;4.75;;;26.30;55.60;;;;;;5051970;28;20301;-54
2022/08/16 12:40:48;;;;;;;6.18;5.55;;;26.20;55.50;;;;;;5051946;28;20220;-55
2022/08/16 12:43:13;;;;;;;5.80;5.32;;;26.20;55.50;;;;;;5051474;28;20175;-51